createdAt,value
2023-05-20T00:00:24.475Z,12.19
2023-05-20T00:12:24.527Z,12.18
2023-05-20T00:24:24.424Z,12.17
2023-05-20T00:36:24.500Z,12.16
2023-05-20T00:48:24.485Z,12.15
2023-05-20T01:00:24.421Z,12.13
2023-05-20T01:12:24.521Z,12.13
2023-05-20T01:24:24.608Z,12.11
2023-05-20T01:36:24.533Z,12.10
2023-05-20T01:48:24.547Z,12.09
2023-05-20T02:00:24.442Z,12.07
2023-05-20T02:12:24.428Z,12.06
2023-05-20T02:24:24.513Z,12.04
2023-05-20T02:36:24.928Z,12.04
2023-05-20T02:48:24.450Z,12.02
2023-05-20T03:00:24.525Z,12.02
2023-05-20T03:12:24.433Z,12.01
2023-05-20T03:24:24.457Z,11.99
2023-05-20T03:36:24.533Z,11.98
2023-05-20T03:48:24.553Z,11.97
2023-05-20T04:00:24.488Z,11.96
2023-05-20T04:12:24.737Z,11.95
2023-05-20T04:24:24.428Z,11.95
2023-05-20T04:36:24.433Z,11.94
2023-05-20T04:48:24.449Z,11.95
2023-05-20T05:00:24.434Z,11.94
2023-05-20T05:12:24.432Z,11.95
2023-05-20T05:24:24.487Z,11.95
2023-05-20T05:36:24.431Z,11.97
2023-05-20T05:48:24.442Z,12.00
2023-05-20T06:00:25.075Z,12.08
2023-05-20T06:12:24.454Z,12.08
2023-05-20T06:24:24.875Z,12.14
2023-05-20T06:36:24.431Z,12.18
2023-05-20T06:48:24.485Z,12.35
2023-05-20T07:00:24.538Z,12.30
2023-05-20T07:12:24.513Z,12.33
2023-05-20T07:24:24.515Z,12.44
2023-05-20T07:36:24.501Z,12.63
2023-05-20T07:48:24.476Z,12.59
2023-05-20T08:00:24.612Z,12.65
2023-05-20T08:12:24.505Z,12.63
2023-05-20T08:24:24.424Z,12.68
2023-05-20T08:36:24.546Z,12.71
2023-05-20T08:48:24.526Z,12.72
2023-05-20T09:00:24.424Z,12.73
2023-05-20T09:12:24.509Z,12.73
2023-05-20T09:24:24.537Z,12.73
2023-05-20T09:36:24.557Z,12.73
2023-05-20T09:48:24.443Z,12.73
2023-05-20T10:00:24.532Z,12.73
2023-05-20T10:12:24.546Z,12.73
2023-05-20T10:24:24.533Z,12.73
2023-05-20T10:36:24.566Z,12.72
2023-05-20T10:48:24.736Z,12.72
2023-05-20T11:00:24.536Z,12.72
2023-05-20T11:12:24.449Z,12.72
2023-05-20T11:24:24.482Z,12.72
2023-05-20T11:36:27.824Z,12.72
2023-05-20T11:48:24.566Z,12.71
2023-05-20T12:00:24.437Z,12.71
2023-05-20T12:12:24.435Z,12.71
2023-05-20T12:24:24.541Z,12.71
2023-05-20T12:36:24.441Z,12.71
2023-05-20T12:48:24.424Z,12.71
2023-05-20T13:00:24.427Z,12.71
2023-05-20T13:12:24.521Z,12.71
2023-05-20T13:24:24.445Z,12.70
2023-05-20T13:36:24.435Z,12.70
2023-05-20T13:48:24.535Z,12.70
2023-05-20T14:00:24.690Z,12.70
2023-05-20T14:12:24.529Z,12.69
2023-05-20T14:24:24.420Z,12.69
2023-05-20T14:36:24.440Z,12.69
2023-05-20T14:48:24.563Z,12.69
2023-05-20T15:00:24.548Z,12.67
2023-05-20T15:12:24.496Z,12.67
2023-05-20T15:24:24.618Z,12.66
2023-05-20T15:36:24.504Z,12.66
2023-05-20T15:48:24.518Z,12.66
2023-05-20T16:00:24.461Z,12.68
2023-05-20T16:12:24.533Z,12.67
2023-05-20T16:24:24.428Z,12.65
2023-05-20T16:36:24.531Z,12.63
2023-05-20T16:48:24.477Z,12.61
2023-05-20T17:00:24.532Z,12.60
2023-05-20T17:12:24.469Z,12.58
2023-05-20T17:24:24.421Z,12.60
2023-05-20T17:36:24.547Z,12.59
2023-05-20T17:48:24.513Z,12.59
2023-05-20T18:00:24.438Z,12.59
2023-05-20T18:12:24.609Z,12.59
2023-05-20T18:24:24.432Z,12.58
2023-05-20T18:36:24.442Z,12.58
2023-05-20T18:48:27.168Z,12.56
2023-05-20T19:00:24.466Z,12.56
2023-05-20T19:12:24.516Z,12.54
2023-05-20T19:24:24.449Z,12.52
2023-05-20T19:36:24.477Z,12.51
2023-05-20T19:48:24.534Z,12.49
2023-05-20T20:00:24.450Z,12.48
2023-05-20T20:12:24.541Z,12.47
2023-05-20T20:24:24.453Z,12.45
2023-05-20T20:36:24.544Z,12.43
2023-05-20T20:48:24.543Z,12.42
2023-05-20T21:00:24.529Z,12.41
2023-05-20T21:12:24.458Z,12.40
2023-05-20T21:24:24.553Z,12.38
2023-05-20T21:36:24.558Z,12.37
2023-05-20T21:48:24.527Z,12.36
2023-05-20T22:00:24.560Z,12.34
2023-05-20T22:12:24.550Z,12.34
2023-05-20T22:24:24.439Z,12.32
2023-05-20T22:36:24.494Z,12.31
2023-05-20T22:48:24.498Z,12.29
2023-05-20T23:00:24.432Z,12.28
2023-05-20T23:12:24.481Z,12.27
2023-05-20T23:24:24.437Z,12.25
2023-05-20T23:36:24.557Z,12.25
2023-05-20T23:48:24.429Z,12.23
